Time;durP1;ratioP1;P1;durP2;ratioP2;P2;SDS_P1;SDS_P2;PMS_P1;PMS_P2;Temp;Humidity;BMP_temperature;BMP_pressure;BME280_temperature;BME280_humidity;BME280_pressure;Samples;Min_cycle;Max_cycle;Signal;HPM_P1;HPM_P2
2022/01/11 00:00:35;;;;;;;34.65;17.10;;;4.80;62.20;;;;;;4976024;28;20038;-57
2022/01/11 00:03:04;;;;;;;32.35;16.58;;;4.80;62.10;;;;;;4973558;28;20043;-56
2022/01/11 00:05:36;;;;;;;35.63;17.23;;;4.80;62.10;;;;;;4948070;28;20495;-57
2022/01/11 00:08:03;;;;;;;37.65;17.17;;;4.80;62.80;;;;;;4970388;28;20468;-53
2022/01/11 00:10:34;;;;;;;42.60;17.40;;;4.80;62.20;;;;;;4975654;28;20026;-56
2022/01/11 00:13:01;;;;;;;41.55;16.90;;;4.80;62.20;;;;;;4975645;28;20486;-56
2022/01/11 00:15:29;;;;;;;38.38;17.42;;;4.80;62.30;;;;;;4975394;28;20058;-55
2022/01/11 00:17:58;;;;;;;56.30;18.40;;;4.80;62.20;;;;;;4969718;28;20030;-55
2022/01/11 00:20:27;;;;;;;54.05;17.60;;;4.70;62.20;;;;;;4976769;28;20478;-56
2022/01/11 00:25:27;;;;;;;46.50;19.15;;;4.80;62.30;;;;;;4977906;28;20018;-56
2022/01/11 00:27:55;;;;;;;39.28;17.88;;;4.80;62.30;;;;;;4954431;28;20031;-56
2022/01/11 00:30:23;;;;;;;56.42;19.50;;;4.70;62.30;;;;;;4961317;28;20034;-56
2022/01/11 00:32:53;;;;;;;41.42;19.05;;;4.70;62.30;;;;;;4977377;28;20489;-54
2022/01/11 00:35:27;;;;;;;44.30;18.83;;;4.70;62.30;;;;;;4975835;28;20042;-55
2022/01/11 00:37:55;;;;;;;44.50;19.85;;;4.80;62.50;;;;;;4973321;28;20034;-56
2022/01/11 00:40:22;;;;;;;45.08;18.30;;;4.80;62.50;;;;;;4982551;28;20475;-55
2022/01/11 00:42:48;;;;;;;46.88;19.02;;;4.80;62.40;;;;;;4977025;28;20018;-58
2022/01/11 00:45:14;;;;;;;48.58;20.15;;;4.80;62.40;;;;;;4961455;28;20049;-57
2022/01/11 00:47:41;;;;;;;48.53;19.33;;;4.70;62.30;;;;;;4977221;28;20818;-56
2022/01/11 00:50:09;;;;;;;41.00;19.10;;;4.80;62.40;;;;;;4980611;28;20352;-55
2022/01/11 00:52:35;;;;;;;42.00;19.40;;;4.80;62.40;;;;;;4979102;28;20111;-57
2022/01/11 00:55:01;;;;;;;42.80;19.33;;;4.70;62.40;;;;;;4981884;28;20027;-56
2022/01/11 00:57:27;;;;;;;41.05;18.77;;;4.80;62.50;;;;;;4974085;28;20037;-57
2022/01/11 00:59:53;;;;;;;40.28;19.92;;;4.80;62.50;;;;;;4981845;28;20030;-55
2022/01/11 01:02:20;;;;;;;40.75;19.85;;;4.80;62.50;;;;;;4976345;28;20043;-56
2022/01/11 01:04:46;;;;;;;40.60;20.02;;;4.80;62.50;;;;;;4982489;28;20030;-58
2022/01/11 01:07:12;;;;;;;43.88;18.92;;;4.80;62.50;;;;;;4978853;28;20039;-58
2022/01/11 01:09:54;;;;;;;38.60;18.98;;;4.80;62.50;;;;;;4978842;28;20027;-56
2022/01/11 01:12:20;;;;;;;41.80;19.80;;;4.80;62.40;;;;;;4981164;28;20042;-57
2022/01/11 01:14:46;;;;;;;43.88;20.30;;;4.80;62.40;;;;;;4980106;28;20034;-56
2022/01/11 01:17:13;;;;;;;46.67;19.55;;;4.80;62.30;;;;;;4959390;28;20925;-56
2022/01/11 01:19:39;;;;;;;40.42;19.52;;;4.80;62.40;;;;;;4979817;28;20378;-56
2022/01/11 01:22:05;;;;;;;44.75;21.13;;;4.80;62.30;;;;;;4982225;28;20034;-58
2022/01/11 01:24:31;;;;;;;40.53;19.85;;;4.80;62.20;;;;;;4979745;28;20045;-56
2022/01/11 01:26:59;;;;;;;41.40;19.40;;;4.80;62.20;;;;;;4979951;28;20093;-58
2022/01/11 01:29:25;;;;;;;50.22;20.08;;;4.80;62.20;;;;;;4978061;28;20341;-55
2022/01/11 01:31:52;;;;;;;49.47;19.40;;;4.80;62.10;;;;;;4979778;28;20033;-56
2022/01/11 01:34:18;;;;;;;44.88;18.25;;;4.80;62.10;;;;;;4979094;28;20391;-56
2022/01/11 01:36:44;;;;;;;42.22;18.35;;;4.80;62.10;;;;;;4979306;28;20022;-55
2022/01/11 01:39:11;;;;;;;42.58;18.45;;;4.80;62.10;;;;;;4976219;28;20628;-58
2022/01/11 01:41:42;;;;;;;41.65;19.45;;;4.80;62.20;;;;;;4981205;28;20018;-59
2022/01/11 01:44:09;;;;;;;58.35;19.95;;;4.70;62.10;;;;;;4962349;28;20046;-56
2022/01/11 01:46:35;;;;;;;39.72;19.17;;;4.80;62.20;;;;;;4978802;28;20399;-56
2022/01/11 01:49:03;;;;;;;39.95;18.80;;;4.70;62.10;;;;;;4976012;28;20486;-57
2022/01/11 01:51:30;;;;;;;60.03;19.80;;;4.70;62.20;;;;;;4978994;28;20033;-54
2022/01/11 01:53:56;;;;;;;46.70;18.90;;;4.80;62.20;;;;;;4979998;28;20041;-56
2022/01/11 01:56:23;;;;;;;50.30;19.02;;;4.80;62.20;;;;;;4981514;28;20039;-56
2022/01/11 01:58:50;;;;;;;41.05;18.92;;;4.70;62.10;;;;;;4974797;28;20042;-56
2022/01/11 02:01:17;;;;;;;43.97;18.40;;;4.70;62.10;;;;;;4975760;28;20026;-58
2022/01/11 02:03:45;;;;;;;40.47;17.50;;;4.70;62.10;;;;;;4979172;28;20038;-55
2022/01/11 02:06:14;;;;;;;41.30;20.85;;;4.70;62.10;;;;;;4979567;28;20042;-57
2022/01/11 02:08:42;;;;;;;53.28;18.13;;;4.70;62.00;;;;;;4962417;28;20046;-56
2022/01/11 02:11:08;;;;;;;34.00;17.73;;;4.70;62.00;;;;;;4976911;28;20034;-56
2022/01/11 02:13:36;;;;;;;46.15;18.67;;;4.70;62.00;;;;;;4980656;28;20035;-56
2022/01/11 02:16:03;;;;;;;51.00;19.48;;;4.70;62.00;;;;;;4980381;28;20035;-55
2022/01/11 02:18:30;;;;;;;51.67;19.52;;;4.70;61.90;;;;;;4975063;28;20566;-57
2022/01/11 02:20:58;;;;;;;51.38;19.42;;;4.70;61.80;;;;;;4980387;28;20030;-57
2022/01/11 02:23:27;;;;;;;47.13;19.60;;;4.70;61.80;;;;;;4976631;28;20057;-53
2022/01/11 02:25:53;;;;;;;42.13;18.13;;;4.70;61.60;;;;;;4981540;28;20038;-56
2022/01/11 02:28:22;;;;;;;44.13;18.48;;;4.70;61.70;;;;;;4975632;28;20038;-56
2022/01/11 02:30:49;;;;;;;37.97;18.83;;;4.70;61.70;;;;;;4980064;28;20478;-55
2022/01/11 02:33:32;;;;;;;35.88;18.15;;;4.70;61.80;;;;;;4979494;28;20026;-56
2022/01/11 02:36:04;;;;;;;36.10;18.25;;;4.70;61.80;;;;;;4979693;28;20030;-56
2022/01/11 02:38:30;;;;;;;55.33;19.45;;;4.70;61.80;;;;;;4972165;28;20054;-54
2022/01/11 02:40:58;;;;;;;40.58;18.58;;;4.70;61.80;;;;;;4977528;28;20038;-55
2022/01/11 02:43:25;;;;;;;46.85;19.67;;;4.70;61.80;;;;;;4976789;28;20053;-57
2022/01/11 02:45:51;;;;;;;41.42;19.15;;;4.70;61.80;;;;;;4977311;28;20035;-56
2022/01/11 02:48:18;;;;;;;55.28;19.80;;;4.70;61.80;;;;;;4975478;28;20030;-57
2022/01/11 02:50:45;;;;;;;43.30;19.02;;;4.60;61.70;;;;;;4977875;28;20035;-56
2022/01/11 02:53:13;;;;;;;44.95;18.70;;;4.60;61.70;;;;;;4963009;28;20047;-58
2022/01/11 02:55:40;;;;;;;42.38;18.98;;;4.60;61.70;;;;;;4976994;28;20696;-56
2022/01/11 02:58:07;;;;;;;50.92;19.52;;;4.70;61.90;;;;;;4977269;28;20415;-56
2022/01/11 03:00:33;;;;;;;45.92;20.17;;;4.60;61.80;;;;;;4975665;28;20035;-56
2022/01/11 03:03:16;;;;;;;61.90;19.48;;;4.60;61.80;;;;;;4976179;28;20062;-53
2022/01/11 03:05:51;;;;;;;37.78;17.77;;;4.60;61.80;;;;;;4979645;28;20038;-55
2022/01/11 03:08:19;;;;;;;45.80;18.73;;;4.60;61.70;;;;;;4977235;28;20030;-56
2022/01/11 03:10:47;;;;;;;54.92;19.13;;;4.60;61.70;;;;;;4961059;28;20030;-57
2022/01/11 03:13:16;;;;;;;46.33;18.42;;;4.60;61.60;;;;;;4977310;28;20621;-53
2022/01/11 03:15:44;;;;;;;42.75;17.90;;;4.60;61.60;;;;;;4977838;28;20475;-57
2022/01/11 03:18:10;;;;;;;35.90;16.88;;;4.60;61.60;;;;;;4974446;28;20030;-55
2022/01/11 03:20:38;;;;;;;50.25;18.48;;;4.60;61.60;;;;;;4962488;28;20399;-58
2022/01/11 03:23:06;;;;;;;53.60;18.30;;;4.60;61.60;;;;;;4977478;28;20038;-57
2022/01/11 03:25:32;;;;;;;44.33;16.95;;;4.50;61.40;;;;;;4980697;28;20403;-57
2022/01/11 03:27:59;;;;;;;60.20;18.65;;;4.50;61.40;;;;;;4973944;28;20018;-58
2022/01/11 03:30:25;;;;;;;40.95;16.30;;;4.50;61.40;;;;;;4977776;28;20049;-56
2022/01/11 03:32:51;;;;;;;55.53;18.52;;;4.50;61.40;;;;;;4977073;28;20026;-57
2022/01/11 03:35:18;;;;;;;37.97;17.40;;;4.50;61.50;;;;;;4978557;28;20019;-58
2022/01/11 03:37:46;;;;;;;48.22;17.33;;;4.40;61.40;;;;;;4960025;28;20046;-55
2022/01/11 03:40:18;;;;;;;40.10;17.58;;;4.40;61.40;;;;;;4977009;28;20037;-58
2022/01/11 03:42:45;;;;;;;70.40;18.67;;;4.40;61.40;;;;;;4975398;28;20030;-56
2022/01/11 03:45:14;;;;;;;47.38;19.63;;;4.40;61.40;;;;;;4978349;28;20395;-56
2022/01/11 03:47:41;;;;;;;61.17;18.20;;;4.40;61.40;;;;;;4973831;28;20046;-56
2022/01/11 03:50:09;;;;;;;55.22;18.48;;;4.40;61.50;;;;;;4978415;28;20064;-59
2022/01/11 03:52:36;;;;;;;43.13;18.35;;;4.40;61.50;;;;;;4979095;28;20022;-58
2022/01/11 03:55:10;;;;;;;37.67;16.95;;;4.30;61.50;;;;;;4977078;28;20030;-57
2022/01/11 03:57:36;;;;;;;45.03;19.48;;;4.30;61.50;;;;;;4974233;28;20379;-56
2022/01/11 04:00:08;;;;;;;37.42;18.05;;;4.30;61.70;;;;;;4975969;28;20387;-56
2022/01/11 04:02:34;;;;;;;46.30;18.67;;;4.30;61.80;;;;;;4975239;28;20391;-56
2022/01/11 04:05:01;;;;;;;41.15;19.27;;;4.30;61.80;;;;;;4979746;28;20033;-56
2022/01/11 04:07:29;;;;;;;47.60;18.25;;;4.30;61.80;;;;;;4973889;28;20315;-58
2022/01/11 04:09:56;;;;;;;41.03;18.20;;;4.30;61.80;;;;;;4978966;28;20033;-56
2022/01/11 04:12:23;;;;;;;46.53;17.88;;;4.30;61.90;;;;;;4976561;28;20033;-59
2022/01/11 04:14:50;;;;;;;34.20;16.77;;;4.30;61.90;;;;;;4984463;28;20022;-58
2022/01/11 04:17:17;;;;;;;43.00;17.98;;;4.30;61.80;;;;;;4968998;28;20378;-56
2022/01/11 04:19:44;;;;;;;46.05;18.08;;;4.30;61.90;;;;;;4983957;28;20022;-57
2022/01/11 04:22:10;;;;;;;47.53;17.70;;;4.30;61.90;;;;;;4982609;28;20030;-57
2022/01/11 04:24:36;;;;;;;41.78;18.38;;;4.30;61.90;;;;;;4981611;28;20045;-54
2022/01/11 04:27:03;;;;;;;46.38;18.95;;;4.30;61.90;;;;;;4980045;28;20045;-58
2022/01/11 04:29:29;;;;;;;38.80;17.88;;;4.30;61.90;;;;;;4980487;28;20467;-54
2022/01/11 04:31:55;;;;;;;45.88;18.73;;;4.30;61.90;;;;;;4981826;28;20037;-56
2022/01/11 04:34:22;;;;;;;44.38;19.15;;;4.30;61.90;;;;;;4980417;28;20026;-57
2022/01/11 04:36:48;;;;;;;44.50;16.65;;;4.30;61.80;;;;;;4983390;28;20031;-59
2022/01/11 04:39:15;;;;;;;36.30;17.45;;;4.30;61.70;;;;;;4978326;28;20030;-56
2022/01/11 04:41:41;;;;;;;46.50;18.67;;;4.30;61.70;;;;;;4984162;28;20034;-56
2022/01/11 04:44:07;;;;;;;46.80;18.20;;;4.30;61.70;;;;;;4982781;28;20518;-58
2022/01/11 04:46:34;;;;;;;46.53;18.98;;;4.30;61.60;;;;;;4979741;28;20034;-56
2022/01/11 04:49:01;;;;;;;44.17;19.25;;;4.30;61.60;;;;;;4974834;28;20410;-59
2022/01/11 04:51:28;;;;;;;63.55;19.88;;;4.20;61.60;;;;;;4984441;28;20069;-59
2022/01/11 04:53:55;;;;;;;54.40;18.52;;;4.20;61.60;;;;;;4983033;28;20034;-59
2022/01/11 04:56:22;;;;;;;75.22;19.85;;;4.20;61.60;;;;;;4982999;28;20495;-59
2022/01/11 04:58:48;;;;;;;47.25;18.42;;;4.20;61.70;;;;;;4972062;28;20026;-59
2022/01/11 05:01:15;;;;;;;66.80;19.20;;;4.20;61.70;;;;;;4979229;28;20046;-57
2022/01/11 05:03:41;;;;;;;59.35;20.08;;;4.20;61.70;;;;;;4975092;28;20034;-58
2022/01/11 05:06:07;;;;;;;62.95;18.15;;;4.20;61.70;;;;;;4981949;28;20034;-59
2022/01/11 05:08:33;;;;;;;46.22;17.80;;;4.20;61.80;;;;;;4979943;28;20037;-56
2022/01/11 05:10:59;;;;;;;41.40;19.52;;;4.20;61.80;;;;;;4981421;28;20034;-57
2022/01/11 05:13:26;;;;;;;42.15;19.05;;;4.20;61.90;;;;;;4983447;28;20030;-56
2022/01/11 05:15:52;;;;;;;65.25;18.50;;;4.20;61.90;;;;;;4973723;28;20038;-59
2022/01/11 05:18:18;;;;;;;48.78;19.35;;;4.20;61.90;;;;;;4966510;28;20022;-56
2022/01/11 05:20:46;;;;;;;48.72;18.27;;;4.20;61.90;;;;;;4974638;28;20397;-58
2022/01/11 05:23:16;;;;;;;41.58;16.83;;;4.20;61.90;;;;;;4978503;28;20034;-58
2022/01/11 05:25:43;;;;;;;44.08;17.75;;;4.20;61.80;;;;;;4981949;28;20034;-56
2022/01/11 05:28:10;;;;;;;52.38;18.55;;;4.20;61.90;;;;;;4970811;28;20034;-59
2022/01/11 05:30:36;;;;;;;49.45;18.55;;;4.10;61.80;;;;;;4979032;28;20023;-57
2022/01/11 05:33:02;;;;;;;41.08;17.75;;;4.20;61.90;;;;;;4962067;28;20077;-59
2022/01/11 05:35:29;;;;;;;37.65;17.77;;;4.10;61.80;;;;;;4973328;28;20026;-56
2022/01/11 05:37:56;;;;;;;59.72;17.00;;;4.20;61.90;;;;;;4978152;28;20076;-55
2022/01/11 05:40:23;;;;;;;50.20;16.50;;;4.20;61.90;;;;;;4979974;28;20025;-58
2022/01/11 05:42:50;;;;;;;39.83;15.93;;;4.10;61.80;;;;;;4981748;28;20027;-57
2022/01/11 05:45:17;;;;;;;44.97;15.88;;;4.10;61.80;;;;;;4980741;28;20391;-58
2022/01/11 05:47:44;;;;;;;33.40;16.80;;;4.10;61.80;;;;;;4973909;28;20949;-58
2022/01/11 05:50:12;;;;;;;76.25;31.08;;;4.10;61.80;;;;;;4977202;28;20360;-56
2022/01/11 05:52:39;;;;;;;53.35;22.15;;;4.10;61.90;;;;;;4977922;28;20023;-58
2022/01/11 05:55:08;;;;;;;37.63;17.42;;;4.10;61.90;;;;;;4984077;28;20053;-57
2022/01/11 05:57:35;;;;;;;37.05;16.50;;;4.10;61.90;;;;;;4977648;28;20049;-59
2022/01/11 06:00:06;;;;;;;38.38;15.70;;;4.10;61.90;;;;;;4983022;28;20038;-58
2022/01/11 06:02:33;;;;;;;44.22;15.90;;;4.10;61.90;;;;;;4980596;28;20614;-57
2022/01/11 06:04:59;;;;;;;46.20;16.83;;;4.10;61.90;;;;;;4980891;28;20034;-59
2022/01/11 06:07:25;;;;;;;44.28;15.88;;;4.10;61.80;;;;;;4979213;28;20030;-56
2022/01/11 06:09:51;;;;;;;48.95;17.30;;;4.10;61.90;;;;;;4980420;28;20058;-57
2022/01/11 06:12:17;;;;;;;45.80;15.95;;;4.10;61.80;;;;;;4982022;28;20383;-58
2022/01/11 06:14:43;;;;;;;47.78;16.40;;;4.10;61.90;;;;;;4979896;28;20022;-57
2022/01/11 06:17:09;;;;;;;86.28;26.58;;;4.10;61.80;;;;;;4974108;28;20627;-59
2022/01/11 06:19:36;;;;;;;60.05;21.58;;;4.10;61.80;;;;;;4976955;28;20034;-56
2022/01/11 06:22:02;;;;;;;51.40;17.40;;;4.10;61.80;;;;;;4982469;28;20394;-57
2022/01/11 06:24:29;;;;;;;39.65;17.27;;;4.10;61.80;;;;;;4978186;28;20034;-56
2022/01/11 06:26:55;;;;;;;32.63;15.13;;;4.10;61.80;;;;;;4983531;28;20029;-59
2022/01/11 06:29:22;;;;;;;41.90;16.40;;;4.10;61.90;;;;;;4977758;28;20037;-56
2022/01/11 06:31:48;;;;;;;34.97;15.65;;;4.10;61.90;;;;;;4958080;28;20499;-59
2022/01/11 06:34:14;;;;;;;44.00;15.50;;;4.10;61.90;;;;;;4964614;28;20053;-58
2022/01/11 06:36:40;;;;;;;32.83;13.77;;;4.10;61.80;;;;;;4981881;28;20204;-57
2022/01/11 06:39:07;;;;;;;43.95;14.15;;;4.10;61.80;;;;;;4979624;28;20034;-59
2022/01/11 06:41:35;;;;;;;39.10;14.88;;;4.10;61.80;;;;;;4980486;28;20029;-59
2022/01/11 06:44:01;;;;;;;49.75;15.02;;;4.00;61.80;;;;;;4979846;28;20452;-59
2022/01/11 06:46:28;;;;;;;38.50;14.15;;;4.00;61.80;;;;;;4979799;28;20026;-59
2022/01/11 06:48:57;;;;;;;34.45;14.82;;;4.00;61.80;;;;;;4979231;28;20471;-59
2022/01/11 06:51:23;;;;;;;32.40;13.70;;;4.00;61.80;;;;;;4977452;28;20026;-57
2022/01/11 06:53:49;;;;;;;54.15;15.23;;;4.00;61.80;;;;;;4980506;28;20387;-59
2022/01/11 06:56:17;;;;;;;34.33;12.48;;;4.00;61.80;;;;;;4979281;28;20030;-59
2022/01/11 06:58:44;;;;;;;40.42;14.23;;;4.00;61.80;;;;;;4974710;28;20041;-59
2022/01/11 07:01:10;;;;;;;51.45;13.00;;;4.00;61.80;;;;;;4976809;28;20372;-58
2022/01/11 07:03:37;;;;;;;31.40;13.68;;;4.00;61.80;;;;;;4970673;28;20495;-58
2022/01/11 07:06:04;;;;;;;52.42;14.70;;;4.00;61.90;;;;;;4981272;28;20026;-57
2022/01/11 07:08:30;;;;;;;41.15;14.35;;;3.90;61.80;;;;;;4977846;28;20038;-59
2022/01/11 07:10:57;;;;;;;37.72;13.50;;;4.00;61.90;;;;;;4981549;28;20042;-58
2022/01/11 07:13:23;;;;;;;31.55;13.70;;;3.90;61.80;;;;;;4980094;28;20038;-58
2022/01/11 07:15:49;;;;;;;29.40;13.60;;;3.90;61.90;;;;;;4973897;28;20030;-57
2022/01/11 07:18:16;;;;;;;45.90;13.95;;;3.90;61.90;;;;;;4975962;28;20030;-59
2022/01/11 07:20:42;;;;;;;31.02;14.38;;;4.00;61.90;;;;;;4973372;28;20042;-59
2022/01/11 07:23:10;;;;;;;34.38;15.02;;;3.90;61.80;;;;;;4977235;28;20027;-58
2022/01/11 07:25:37;;;;;;;30.35;13.68;;;3.90;61.80;;;;;;4975531;28;20049;-58
2022/01/11 07:28:04;;;;;;;29.38;13.52;;;3.90;61.90;;;;;;4972119;28;20034;-59
2022/01/11 07:30:31;;;;;;;32.33;13.48;;;3.90;61.90;;;;;;4975931;28;20030;-59
2022/01/11 07:32:57;;;;;;;32.25;14.18;;;3.90;61.90;;;;;;4978544;28;20391;-59
2022/01/11 07:35:24;;;;;;;28.67;13.82;;;3.90;61.90;;;;;;4977949;28;20390;-58
2022/01/11 07:37:51;;;;;;;35.63;14.65;;;3.90;61.90;;;;;;4976744;28;20428;-57
2022/01/11 07:40:18;;;;;;;30.95;14.57;;;3.90;61.90;;;;;;4973792;28;20030;-59
2022/01/11 07:42:44;;;;;;;29.73;13.48;;;3.90;61.90;;;;;;4972580;28;20030;-58
2022/01/11 07:45:11;;;;;;;29.90;13.30;;;3.90;62.60;;;;;;4977668;28;20034;-59
2022/01/11 07:47:37;;;;;;;31.38;13.70;;;3.90;61.80;;;;;;4971406;28;20022;-59
2022/01/11 07:50:06;;;;;;;36.15;13.55;;;3.90;61.80;;;;;;4976578;28;20624;-56
2022/01/11 07:52:33;;;;;;;32.97;13.95;;;3.90;61.80;;;;;;4979898;28;20043;-59
2022/01/11 07:55:00;;;;;;;33.35;13.93;;;3.90;61.80;;;;;;4974935;28;20027;-59
2022/01/11 07:57:27;;;;;;;33.75;14.98;;;3.90;61.80;;;;;;4975234;28;20041;-59
2022/01/11 07:59:54;;;;;;;48.63;14.13;;;3.90;61.90;;;;;;4978617;28;20030;-58
2022/01/11 08:02:23;;;;;;;45.05;14.98;;;3.90;61.90;;;;;;4973664;28;20019;-55
2022/01/11 08:04:51;;;;;;;35.13;15.20;;;3.90;61.90;;;;;;4978351;28;20047;-58
2022/01/11 08:07:18;;;;;;;89.20;35.90;;;3.90;61.90;;;;;;4971035;28;20055;-57
2022/01/11 08:09:44;;;;;;;81.03;31.23;;;4.00;62.10;;;;;;4955575;28;20042;-58
2022/01/11 08:12:10;;;;;;;61.47;18.33;;;4.00;62.10;;;;;;4979508;28;20026;-57
2022/01/11 08:14:36;;;;;;;37.50;14.40;;;4.00;62.10;;;;;;4978764;28;20030;-58
2022/01/11 08:17:03;;;;;;;33.55;13.73;;;4.00;62.10;;;;;;4977208;28;20038;-58
2022/01/11 08:19:30;;;;;;;34.80;14.55;;;4.00;62.10;;;;;;4971833;28;20533;-58
2022/01/11 08:21:57;;;;;;;34.15;13.88;;;4.00;62.10;;;;;;4978343;28;20632;-56
2022/01/11 08:24:23;;;;;;;32.05;14.90;;;4.00;62.00;;;;;;4974213;28;20508;-59
2022/01/11 08:26:51;;;;;;;37.35;14.60;;;4.00;62.00;;;;;;4975357;28;20378;-59
2022/01/11 08:29:18;;;;;;;33.60;12.82;;;4.00;62.00;;;;;;4978462;28;20030;-59
2022/01/11 08:31:45;;;;;;;34.05;13.43;;;4.00;61.90;;;;;;4975883;28;20031;-58
2022/01/11 08:34:14;;;;;;;42.70;14.18;;;4.00;62.00;;;;;;4980470;28;20026;-59
2022/01/11 08:36:42;;;;;;;32.08;12.10;;;4.00;61.90;;;;;;4977182;28;20473;-58
2022/01/11 08:39:10;;;;;;;26.75;12.15;;;4.00;61.90;;;;;;4977801;28;20049;-58
2022/01/11 08:41:36;;;;;;;26.52;12.85;;;4.00;62.00;;;;;;4977689;28;20030;-58
2022/01/11 08:44:03;;;;;;;29.05;13.35;;;4.00;62.00;;;;;;4978977;28;20035;-58
2022/01/11 08:46:29;;;;;;;28.55;13.23;;;4.00;62.10;;;;;;4974488;28;20383;-59
2022/01/11 08:48:55;;;;;;;27.90;12.52;;;4.00;62.20;;;;;;4975723;28;20042;-57
2022/01/11 08:51:23;;;;;;;27.20;12.68;;;4.10;62.40;;;;;;4977718;28;20030;-59
2022/01/11 08:53:49;;;;;;;29.15;12.68;;;4.00;62.40;;;;;;4978576;28;20467;-59
2022/01/11 08:56:17;;;;;;;35.00;12.48;;;4.10;62.40;;;;;;4976790;28;20041;-58
2022/01/11 08:58:44;;;;;;;39.30;13.00;;;4.10;62.40;;;;;;4954667;28;20038;-57
2022/01/11 09:01:11;;;;;;;37.65;13.77;;;4.10;62.30;;;;;;4962692;28;21429;-59
2022/01/11 09:03:38;;;;;;;32.60;12.38;;;4.10;62.30;;;;;;4978517;28;20034;-59
2022/01/11 09:06:07;;;;;;;27.88;12.27;;;4.10;62.20;;;;;;4964517;28;20030;-59
2022/01/11 09:08:37;;;;;;;23.75;11.18;;;4.20;62.10;;;;;;4970976;28;20047;-59
2022/01/11 09:11:05;;;;;;;36.67;11.98;;;4.20;62.00;;;;;;4975025;28;20023;-57
2022/01/11 09:13:33;;;;;;;42.25;11.85;;;4.20;61.90;;;;;;4979148;28;20033;-59
2022/01/11 09:16:00;;;;;;;28.85;12.07;;;4.20;61.80;;;;;;4972735;28;20138;-59
2022/01/11 09:18:26;;;;;;;32.22;11.75;;;4.20;61.70;;;;;;4974050;28;20034;-59
2022/01/11 09:20:52;;;;;;;28.25;11.18;;;4.20;61.80;;;;;;4975823;28;20038;-57
2022/01/11 09:23:18;;;;;;;28.48;12.52;;;4.20;61.80;;;;;;4975993;28;20026;-57
2022/01/11 09:25:45;;;;;;;26.95;11.75;;;4.20;61.90;;;;;;4973895;28;20037;-59
2022/01/11 09:28:12;;;;;;;27.67;12.20;;;4.20;61.90;;;;;;4973500;28;20035;-57
2022/01/11 09:30:39;;;;;;;26.00;11.20;;;4.20;61.90;;;;;;4973582;28;20379;-59
2022/01/11 09:33:05;;;;;;;36.28;12.07;;;4.20;61.80;;;;;;4979772;28;20030;-59
2022/01/11 09:35:31;;;;;;;25.48;12.73;;;4.20;61.70;;;;;;4977926;28;20030;-55
2022/01/11 09:37:57;;;;;;;25.60;12.00;;;4.20;62.40;;;;;;4977621;28;20042;-59
2022/01/11 09:40:24;;;;;;;26.40;11.45;;;4.20;61.70;;;;;;4978444;28;20061;-57
2022/01/11 09:42:50;;;;;;;24.13;11.90;;;4.20;61.80;;;;;;4978023;28;20071;-57
2022/01/11 09:45:16;;;;;;;27.50;11.20;;;4.20;61.90;;;;;;4975277;28;20038;-56
2022/01/11 09:47:42;;;;;;;28.13;12.45;;;4.20;62.00;;;;;;4957141;28;20038;-58
2022/01/11 09:50:11;;;;;;;24.05;11.82;;;4.20;62.20;;;;;;4978278;28;20045;-59
2022/01/11 09:52:38;;;;;;;25.27;12.23;;;4.20;62.40;;;;;;4979700;28;20038;-59
2022/01/11 09:55:06;;;;;;;26.00;12.13;;;4.30;62.50;;;;;;4972484;28;20034;-59
2022/01/11 09:57:33;;;;;;;25.42;11.57;;;4.30;62.60;;;;;;4971327;28;20030;-59
2022/01/11 09:59:59;;;;;;;27.17;12.10;;;4.30;62.60;;;;;;4955948;28;20487;-59
2022/01/11 10:02:26;;;;;;;27.08;11.63;;;4.30;62.60;;;;;;4976001;28;20041;-58
2022/01/11 10:04:58;;;;;;;22.52;10.88;;;4.40;63.30;;;;;;4977897;28;20027;-59
2022/01/11 10:07:30;;;;;;;26.67;11.05;;;4.40;62.50;;;;;;4978337;28;20031;-57
2022/01/11 10:09:56;;;;;;;23.27;11.85;;;4.40;62.50;;;;;;4979758;28;20039;-59
2022/01/11 10:12:23;;;;;;;23.58;11.35;;;4.40;62.40;;;;;;4977960;28;20041;-59
2022/01/11 10:14:57;;;;;;;21.00;10.50;;;4.40;62.50;;;;;;4980400;28;20038;-57
2022/01/11 10:17:25;;;;;;;23.88;11.25;;;4.50;62.60;;;;;;4973388;28;20030;-59
2022/01/11 10:20:11;;;;;;;26.10;11.20;;;4.50;62.70;;;;;;4978217;28;20034;-59
2022/01/11 10:22:56;;;;;;;25.92;11.57;;;4.60;62.70;;;;;;4976605;28;20406;-56
2022/01/11 10:25:23;;;;;;;26.95;13.20;;;4.60;62.80;;;;;;4980894;28;20407;-59
2022/01/11 10:28:00;;;;;;;22.17;10.95;;;4.70;62.90;;;;;;4977697;28;20515;-59
2022/01/11 10:30:29;;;;;;;22.98;11.35;;;4.70;62.80;;;;;;4980710;28;20506;-57
2022/01/11 10:33:00;;;;;;;22.98;10.98;;;4.70;62.80;;;;;;4978291;28;20030;-59
2022/01/11 10:35:46;;;;;;;23.60;12.05;;;4.80;62.90;;;;;;4979914;28;20402;-58
2022/01/11 10:38:22;;;;;;;22.88;11.95;;;4.80;62.90;;;;;;4972789;28;20050;-57
2022/01/11 10:40:49;;;;;;;23.35;12.02;;;4.90;62.80;;;;;;4981052;28;20035;-57
2022/01/11 10:43:17;;;;;;;28.75;13.10;;;4.90;62.70;;;;;;4979320;28;20045;-57
2022/01/11 10:45:50;;;;;;;25.15;12.65;;;5.00;62.60;;;;;;4980591;28;20034;-58
2022/01/11 10:48:21;;;;;;;25.03;12.40;;;5.00;62.60;;;;;;4976716;28;20030;-59
2022/01/11 10:50:54;;;;;;;31.70;12.73;;;5.00;63.30;;;;;;4978951;28;20035;-59
2022/01/11 10:53:25;;;;;;;23.92;11.93;;;5.10;62.80;;;;;;4979904;28;20041;-58
2022/01/11 10:55:56;;;;;;;23.83;11.88;;;5.10;62.70;;;;;;4980673;28;20341;-56
2022/01/11 10:58:24;;;;;;;27.88;11.90;;;5.20;62.70;;;;;;4973534;28;20026;-59
2022/01/11 11:00:52;;;;;;;26.73;13.35;;;5.20;62.60;;;;;;4979005;28;20030;-59
2022/01/11 11:03:20;;;;;;;27.20;11.82;;;5.30;62.60;;;;;;4978866;28;20031;-56
2022/01/11 11:05:48;;;;;;;25.17;12.30;;;5.30;62.60;;;;;;4980799;28;20438;-57
2022/01/11 11:08:18;;;;;;;25.48;11.93;;;5.30;62.50;;;;;;4981122;28;20383;-58
2022/01/11 11:10:46;;;;;;;25.25;12.90;;;5.40;62.50;;;;;;4981374;28;20037;-59
2022/01/11 11:13:36;;;;;;;26.35;13.05;;;5.40;62.50;;;;;;4964528;28;20498;-59
2022/01/11 11:16:16;;;;;;;28.65;13.68;;;5.40;62.30;;;;;;4979988;28;20491;-58
2022/01/11 11:18:56;;;;;;;25.02;12.88;;;5.40;62.10;;;;;;4970420;28;20039;-57
2022/01/11 11:21:24;;;;;;;27.10;13.52;;;5.40;62.10;;;;;;4977482;28;20049;-55
2022/01/11 11:23:58;;;;;;;23.50;12.27;;;5.50;62.20;;;;;;4977644;28;20037;-57
2022/01/11 11:26:28;;;;;;;26.02;12.88;;;5.50;62.20;;;;;;4974280;28;20031;-59
2022/01/11 11:28:54;;;;;;;24.90;12.10;;;5.50;62.20;;;;;;4957147;28;20030;-56
2022/01/11 11:31:21;;;;;;;22.17;10.88;;;5.50;62.10;;;;;;4977253;28;20386;-59
2022/01/11 11:33:50;;;;;;;23.95;13.50;;;5.50;62.10;;;;;;4977944;28;20022;-57
2022/01/11 11:36:19;;;;;;;28.83;12.63;;;5.50;62.20;;;;;;4978498;28;20046;-59
2022/01/11 11:38:52;;;;;;;23.80;11.93;;;5.50;62.20;;;;;;4976634;28;20045;-58
2022/01/11 11:41:20;;;;;;;28.50;12.40;;;5.50;62.20;;;;;;4968616;28;20636;-59
2022/01/11 11:44:08;;;;;;;20.98;11.40;;;5.50;62.30;;;;;;4934684;28;20038;-59
2022/01/11 11:46:49;;;;;;;23.67;11.85;;;5.50;62.60;;;;;;4969134;28;20065;-59
2022/01/11 11:49:17;;;;;;;24.67;12.88;;;5.50;62.50;;;;;;4960659;28;20038;-59
2022/01/11 11:51:44;;;;;;;25.08;12.00;;;5.50;62.60;;;;;;4979515;28;20030;-59
2022/01/11 11:54:13;;;;;;;24.65;12.80;;;5.60;62.60;;;;;;4980438;28;20037;-57
2022/01/11 11:56:43;;;;;;;25.33;12.45;;;5.60;62.60;;;;;;4975872;28;20031;-57
2022/01/11 11:59:09;;;;;;;26.20;12.30;;;5.50;62.50;;;;;;4977249;28;20057;-59
2022/01/11 12:01:45;;;;;;;22.40;11.75;;;5.60;62.60;;;;;;4977097;28;20498;-56
2022/01/11 12:04:14;;;;;;;23.30;11.45;;;5.60;62.70;;;;;;4978291;28;20031;-56
2022/01/11 12:06:41;;;;;;;21.70;11.35;;;5.60;62.70;;;;;;4980406;28;20026;-57
2022/01/11 12:09:14;;;;;;;24.40;12.40;;;5.60;62.80;;;;;;4979701;28;20034;-56
2022/01/11 12:11:43;;;;;;;22.52;11.75;;;5.50;62.90;;;;;;4978775;28;20030;-59
2022/01/11 12:14:35;;;;;;;22.65;11.60;;;5.50;63.00;;;;;;4977803;28;20034;-58
2022/01/11 12:17:17;;;;;;;21.02;11.20;;;5.50;63.20;;;;;;4978427;28;20030;-58
2022/01/11 12:19:48;;;;;;;21.33;11.15;;;5.50;63.30;;;;;;4980906;28;20034;-59
2022/01/11 12:22:23;;;;;;;23.25;11.40;;;5.60;63.40;;;;;;4980073;28;20030;-56
2022/01/11 12:24:51;;;;;;;21.65;11.27;;;5.50;63.40;;;;;;4979655;28;20038;-55
2022/01/11 12:27:21;;;;;;;21.75;12.05;;;5.50;63.50;;;;;;4972933;28;20522;-56
2022/01/11 12:30:06;;;;;;;23.52;12.13;;;5.50;63.70;;;;;;4980014;28;20019;-56
2022/01/11 12:32:38;;;;;;;24.70;11.77;;;5.50;63.90;;;;;;4976652;28;20655;-53
2022/01/11 12:35:11;;;;;;;24.80;12.93;;;5.50;63.90;;;;;;4979792;28;20046;-54
2022/01/11 12:37:45;;;;;;;26.85;12.82;;;5.50;64.00;;;;;;4981091;28;20073;-57
2022/01/11 12:40:29;;;;;;;34.72;12.45;;;5.60;64.10;;;;;;4983551;28;20019;-58
2022/01/11 12:43:05;;;;;;;25.70;13.10;;;5.60;64.10;;;;;;4980865;28;20038;-56